sensor_id;sensor_type;location;lat;lon;timestamp;P1;durP1;ratioP1;P2;durP2;ratioP2
7074;SDS011;3578;51.568;6.932;2023-05-20T00:00:11;4.80;;;2.47;;
7074;SDS011;3578;51.568;6.932;2023-05-20T00:02:39;4.03;;;2.67;;
7074;SDS011;3578;51.568;6.932;2023-05-20T00:05:06;4.23;;;3.17;;
7074;SDS011;3578;51.568;6.932;2023-05-20T00:07:33;2.83;;;2.63;;
7074;SDS011;3578;51.568;6.932;2023-05-20T00:10:00;3.37;;;3.00;;
7074;SDS011;3578;51.568;6.932;2023-05-20T00:12:29;2.70;;;2.50;;
7074;SDS011;3578;51.568;6.932;2023-05-20T00:14:56;2.97;;;2.77;;
7074;SDS011;3578;51.568;6.932;2023-05-20T00:17:23;2.90;;;2.70;;
7074;SDS011;3578;51.568;6.932;2023-05-20T00:19:52;3.20;;;2.83;;
7074;SDS011;3578;51.568;6.932;2023-05-20T00:22:19;3.53;;;3.00;;
7074;SDS011;3578;51.568;6.932;2023-05-20T00:24:47;3.93;;;2.93;;
7074;SDS011;3578;51.568;6.932;2023-05-20T00:27:14;3.17;;;2.77;;
7074;SDS011;3578;51.568;6.932;2023-05-20T00:29:42;3.70;;;2.60;;
7074;SDS011;3578;51.568;6.932;2023-05-20T00:32:09;3.27;;;2.70;;
7074;SDS011;3578;51.568;6.932;2023-05-20T00:34:36;9.33;;;3.27;;
7074;SDS011;3578;51.568;6.932;2023-05-20T00:37:03;3.17;;;2.97;;
7074;SDS011;3578;51.568;6.932;2023-05-20T00:39:30;7.67;;;2.50;;
7074;SDS011;3578;51.568;6.932;2023-05-20T00:41:57;3.13;;;2.80;;
7074;SDS011;3578;51.568;6.932;2023-05-20T00:44:26;2.67;;;2.47;;
7074;SDS011;3578;51.568;6.932;2023-05-20T00:46:55;3.70;;;3.27;;
7074;SDS011;3578;51.568;6.932;2023-05-20T00:49:22;5.40;;;2.87;;
7074;SDS011;3578;51.568;6.932;2023-05-20T00:51:49;2.90;;;2.67;;
7074;SDS011;3578;51.568;6.932;2023-05-20T00:54:16;3.43;;;2.83;;
7074;SDS011;3578;51.568;6.932;2023-05-20T00:56:44;3.03;;;2.73;;
7074;SDS011;3578;51.568;6.932;2023-05-20T00:59:12;3.20;;;2.23;;
7074;SDS011;3578;51.568;6.932;2023-05-20T01:01:39;6.50;;;2.70;;
7074;SDS011;3578;51.568;6.932;2023-05-20T01:04:08;5.80;;;3.30;;
7074;SDS011;3578;51.568;6.932;2023-05-20T01:06:35;3.90;;;2.50;;
7074;SDS011;3578;51.568;6.932;2023-05-20T01:09:02;3.13;;;2.80;;
7074;SDS011;3578;51.568;6.932;2023-05-20T01:11:30;4.57;;;2.70;;
7074;SDS011;3578;51.568;6.932;2023-05-20T01:14:05;3.20;;;2.90;;
7074;SDS011;3578;51.568;6.932;2023-05-20T01:16:34;5.40;;;3.40;;
7074;SDS011;3578;51.568;6.932;2023-05-20T01:19:05;3.50;;;3.20;;
7074;SDS011;3578;51.568;6.932;2023-05-20T01:21:45;5.33;;;3.33;;
7074;SDS011;3578;51.568;6.932;2023-05-20T01:24:16;3.10;;;2.90;;
7074;SDS011;3578;51.568;6.932;2023-05-20T01:26:43;4.80;;;3.10;;
7074;SDS011;3578;51.568;6.932;2023-05-20T01:29:12;3.43;;;2.97;;
7074;SDS011;3578;51.568;6.932;2023-05-20T01:31:42;2.47;;;2.37;;
7074;SDS011;3578;51.568;6.932;2023-05-20T01:34:11;4.17;;;2.67;;
7074;SDS011;3578;51.568;6.932;2023-05-20T01:36:39;8.50;;;2.80;;
7074;SDS011;3578;51.568;6.932;2023-05-20T01:39:06;2.80;;;2.67;;
7074;SDS011;3578;51.568;6.932;2023-05-20T01:41:35;7.00;;;2.83;;
7074;SDS011;3578;51.568;6.932;2023-05-20T01:44:03;4.30;;;2.20;;
7074;SDS011;3578;51.568;6.932;2023-05-20T01:46:31;6.00;;;3.13;;
7074;SDS011;3578;51.568;6.932;2023-05-20T01:48:58;4.43;;;2.90;;
7074;SDS011;3578;51.568;6.932;2023-05-20T01:51:25;3.90;;;2.57;;
7074;SDS011;3578;51.568;6.932;2023-05-20T01:53:54;3.23;;;2.47;;
7074;SDS011;3578;51.568;6.932;2023-05-20T01:56:21;3.20;;;2.90;;
7074;SDS011;3578;51.568;6.932;2023-05-20T01:58:49;2.50;;;2.30;;
7074;SDS011;3578;51.568;6.932;2023-05-20T02:01:16;4.07;;;2.60;;
7074;SDS011;3578;51.568;6.932;2023-05-20T02:03:43;2.67;;;2.47;;
7074;SDS011;3578;51.568;6.932;2023-05-20T02:06:10;5.80;;;3.13;;
7074;SDS011;3578;51.568;6.932;2023-05-20T02:08:37;7.60;;;2.90;;
7074;SDS011;3578;51.568;6.932;2023-05-20T02:11:04;9.43;;;3.20;;
7074;SDS011;3578;51.568;6.932;2023-05-20T02:13:31;3.20;;;2.43;;
7074;SDS011;3578;51.568;6.932;2023-05-20T02:16:00;3.83;;;2.53;;
7074;SDS011;3578;51.568;6.932;2023-05-20T02:18:27;3.90;;;2.67;;
7074;SDS011;3578;51.568;6.932;2023-05-20T02:20:54;3.80;;;2.50;;
7074;SDS011;3578;51.568;6.932;2023-05-20T02:23:20;3.10;;;2.90;;
7074;SDS011;3578;51.568;6.932;2023-05-20T02:25:47;3.67;;;2.70;;
7074;SDS011;3578;51.568;6.932;2023-05-20T02:28:14;4.73;;;3.30;;
7074;SDS011;3578;51.568;6.932;2023-05-20T02:30:41;6.37;;;3.37;;
7074;SDS011;3578;51.568;6.932;2023-05-20T02:33:10;2.70;;;2.50;;
7074;SDS011;3578;51.568;6.932;2023-05-20T02:35:37;3.87;;;3.10;;
7074;SDS011;3578;51.568;6.932;2023-05-20T02:38:04;3.27;;;2.50;;
7074;SDS011;3578;51.568;6.932;2023-05-20T02:40:31;2.97;;;2.77;;
7074;SDS011;3578;51.568;6.932;2023-05-20T02:42:59;2.63;;;2.43;;
7074;SDS011;3578;51.568;6.932;2023-05-20T02:45:26;3.10;;;2.90;;
7074;SDS011;3578;51.568;6.932;2023-05-20T02:47:53;3.00;;;2.70;;
7074;SDS011;3578;51.568;6.932;2023-05-20T02:50:21;5.37;;;2.97;;
7074;SDS011;3578;51.568;6.932;2023-05-20T02:52:49;2.73;;;2.53;;
7074;SDS011;3578;51.568;6.932;2023-05-20T02:55:16;3.10;;;2.90;;
7074;SDS011;3578;51.568;6.932;2023-05-20T02:57:43;5.40;;;2.83;;
7074;SDS011;3578;51.568;6.932;2023-05-20T03:00:10;3.30;;;2.70;;
7074;SDS011;3578;51.568;6.932;2023-05-20T03:02:38;3.37;;;3.07;;
7074;SDS011;3578;51.568;6.932;2023-05-20T03:05:05;4.50;;;3.37;;
7074;SDS011;3578;51.568;6.932;2023-05-20T03:07:34;4.43;;;3.07;;
7074;SDS011;3578;51.568;6.932;2023-05-20T03:10:02;3.73;;;3.43;;
7074;SDS011;3578;51.568;6.932;2023-05-20T03:12:30;3.60;;;3.30;;
7074;SDS011;3578;51.568;6.932;2023-05-20T03:14:57;5.53;;;3.50;;
7074;SDS011;3578;51.568;6.932;2023-05-20T03:17:25;7.53;;;3.40;;
7074;SDS011;3578;51.568;6.932;2023-05-20T03:19:52;3.03;;;2.83;;
7074;SDS011;3578;51.568;6.932;2023-05-20T03:22:18;4.43;;;3.10;;
7074;SDS011;3578;51.568;6.932;2023-05-20T03:24:47;5.43;;;2.77;;
7074;SDS011;3578;51.568;6.932;2023-05-20T03:27:14;3.43;;;3.13;;
7074;SDS011;3578;51.568;6.932;2023-05-20T03:29:41;3.50;;;2.90;;
7074;SDS011;3578;51.568;6.932;2023-05-20T03:32:08;9.80;;;3.57;;
7074;SDS011;3578;51.568;6.932;2023-05-20T03:34:35;3.33;;;3.03;;
7074;SDS011;3578;51.568;6.932;2023-05-20T03:37:02;4.10;;;3.40;;
7074;SDS011;3578;51.568;6.932;2023-05-20T03:39:29;3.53;;;2.80;;
7074;SDS011;3578;51.568;6.932;2023-05-20T03:41:57;3.50;;;3.20;;
7074;SDS011;3578;51.568;6.932;2023-05-20T03:44:24;5.37;;;3.40;;
7074;SDS011;3578;51.568;6.932;2023-05-20T03:46:51;4.67;;;3.07;;
7074;SDS011;3578;51.568;6.932;2023-05-20T03:49:18;5.10;;;2.87;;
7074;SDS011;3578;51.568;6.932;2023-05-20T03:51:45;3.33;;;3.03;;
7074;SDS011;3578;51.568;6.932;2023-05-20T03:54:12;3.17;;;2.97;;
7074;SDS011;3578;51.568;6.932;2023-05-20T03:56:40;2.80;;;2.60;;
7074;SDS011;3578;51.568;6.932;2023-05-20T03:59:09;4.70;;;2.97;;
7074;SDS011;3578;51.568;6.932;2023-05-20T04:01:36;3.40;;;3.10;;
7074;SDS011;3578;51.568;6.932;2023-05-20T04:04:04;3.30;;;2.93;;
7074;SDS011;3578;51.568;6.932;2023-05-20T04:06:31;3.17;;;2.87;;
7074;SDS011;3578;51.568;6.932;2023-05-20T04:08:58;4.33;;;3.00;;
7074;SDS011;3578;51.568;6.932;2023-05-20T04:11:25;3.27;;;3.00;;
7074;SDS011;3578;51.568;6.932;2023-05-20T04:13:52;12.60;;;3.53;;
7074;SDS011;3578;51.568;6.932;2023-05-20T04:16:21;3.53;;;2.97;;
7074;SDS011;3578;51.568;6.932;2023-05-20T04:18:47;4.73;;;3.30;;
7074;SDS011;3578;51.568;6.932;2023-05-20T04:21:16;4.53;;;2.90;;
7074;SDS011;3578;51.568;6.932;2023-05-20T04:23:43;3.00;;;2.80;;
7074;SDS011;3578;51.568;6.932;2023-05-20T04:26:10;5.10;;;3.57;;
7074;SDS011;3578;51.568;6.932;2023-05-20T04:28:38;3.20;;;3.00;;
7074;SDS011;3578;51.568;6.932;2023-05-20T04:31:06;6.30;;;3.13;;
7074;SDS011;3578;51.568;6.932;2023-05-20T04:33:35;3.63;;;2.97;;
7074;SDS011;3578;51.568;6.932;2023-05-20T04:36:05;3.37;;;2.73;;
7074;SDS011;3578;51.568;6.932;2023-05-20T04:38:36;3.57;;;3.23;;
7074;SDS011;3578;51.568;6.932;2023-05-20T04:41:04;3.77;;;3.40;;
7074;SDS011;3578;51.568;6.932;2023-05-20T04:43:31;3.77;;;3.10;;
7074;SDS011;3578;51.568;6.932;2023-05-20T04:45:58;4.77;;;3.27;;
7074;SDS011;3578;51.568;6.932;2023-05-20T04:48:29;3.33;;;3.13;;
7074;SDS011;3578;51.568;6.932;2023-05-20T04:50:59;5.50;;;3.20;;
7074;SDS011;3578;51.568;6.932;2023-05-20T04:53:26;5.20;;;3.10;;
7074;SDS011;3578;51.568;6.932;2023-05-20T04:55:54;3.37;;;3.10;;
7074;SDS011;3578;51.568;6.932;2023-05-20T04:58:22;4.67;;;3.40;;
7074;SDS011;3578;51.568;6.932;2023-05-20T05:00:49;4.10;;;2.90;;
7074;SDS011;3578;51.568;6.932;2023-05-20T05:03:17;3.90;;;3.13;;
7074;SDS011;3578;51.568;6.932;2023-05-20T05:05:44;4.90;;;3.23;;
7074;SDS011;3578;51.568;6.932;2023-05-20T05:08:12;3.80;;;3.50;;
7074;SDS011;3578;51.568;6.932;2023-05-20T05:10:41;3.67;;;3.23;;
7074;SDS011;3578;51.568;6.932;2023-05-20T05:13:08;4.70;;;3.03;;
7074;SDS011;3578;51.568;6.932;2023-05-20T05:15:35;4.83;;;3.33;;
7074;SDS011;3578;51.568;6.932;2023-05-20T05:18:02;6.60;;;3.30;;
7074;SDS011;3578;51.568;6.932;2023-05-20T05:20:29;5.17;;;3.33;;
7074;SDS011;3578;51.568;6.932;2023-05-20T05:22:56;3.70;;;3.00;;
7074;SDS011;3578;51.568;6.932;2023-05-20T05:25:24;3.50;;;3.23;;
7074;SDS011;3578;51.568;6.932;2023-05-20T05:27:51;5.87;;;3.37;;
7074;SDS011;3578;51.568;6.932;2023-05-20T05:30:19;5.57;;;3.40;;
7074;SDS011;3578;51.568;6.932;2023-05-20T05:32:47;4.70;;;3.47;;
7074;SDS011;3578;51.568;6.932;2023-05-20T05:35:13;3.67;;;3.37;;
7074;SDS011;3578;51.568;6.932;2023-05-20T05:37:40;4.30;;;3.80;;
7074;SDS011;3578;51.568;6.932;2023-05-20T05:40:08;4.00;;;3.70;;
7074;SDS011;3578;51.568;6.932;2023-05-20T05:42:37;4.07;;;3.33;;
7074;SDS011;3578;51.568;6.932;2023-05-20T05:45:04;6.70;;;3.80;;
7074;SDS011;3578;51.568;6.932;2023-05-20T05:47:33;3.60;;;3.30;;
7074;SDS011;3578;51.568;6.932;2023-05-20T05:50:00;6.20;;;3.70;;
7074;SDS011;3578;51.568;6.932;2023-05-20T05:52:27;4.60;;;3.43;;
7074;SDS011;3578;51.568;6.932;2023-05-20T05:54:54;6.97;;;3.50;;
7074;SDS011;3578;51.568;6.932;2023-05-20T05:57:21;6.20;;;3.83;;
7074;SDS011;3578;51.568;6.932;2023-05-20T05:59:49;10.37;;;3.93;;
7074;SDS011;3578;51.568;6.932;2023-05-20T06:02:16;13.60;;;3.70;;
7074;SDS011;3578;51.568;6.932;2023-05-20T06:04:43;12.73;;;4.83;;
7074;SDS011;3578;51.568;6.932;2023-05-20T06:07:10;6.60;;;3.73;;
7074;SDS011;3578;51.568;6.932;2023-05-20T06:09:37;5.40;;;3.77;;
7074;SDS011;3578;51.568;6.932;2023-05-20T06:12:04;4.70;;;3.37;;
7074;SDS011;3578;51.568;6.932;2023-05-20T06:14:32;3.43;;;2.97;;
7074;SDS011;3578;51.568;6.932;2023-05-20T06:17:00;5.13;;;3.00;;
7074;SDS011;3578;51.568;6.932;2023-05-20T06:19:28;3.87;;;3.03;;
7074;SDS011;3578;51.568;6.932;2023-05-20T06:21:55;4.90;;;4.03;;
7074;SDS011;3578;51.568;6.932;2023-05-20T06:24:22;3.63;;;2.60;;
7074;SDS011;3578;51.568;6.932;2023-05-20T06:26:49;5.53;;;3.77;;
7074;SDS011;3578;51.568;6.932;2023-05-20T06:29:16;5.63;;;3.53;;
7074;SDS011;3578;51.568;6.932;2023-05-20T06:31:43;3.67;;;3.20;;
7074;SDS011;3578;51.568;6.932;2023-05-20T06:34:12;4.20;;;3.07;;
7074;SDS011;3578;51.568;6.932;2023-05-20T06:36:39;6.53;;;3.20;;
7074;SDS011;3578;51.568;6.932;2023-05-20T06:39:06;19.47;;;3.50;;
7074;SDS011;3578;51.568;6.932;2023-05-20T06:41:36;2.77;;;2.57;;
7074;SDS011;3578;51.568;6.932;2023-05-20T06:44:04;17.77;;;3.60;;
7074;SDS011;3578;51.568;6.932;2023-05-20T06:46:31;9.67;;;3.70;;
7074;SDS011;3578;51.568;6.932;2023-05-20T06:48:59;6.03;;;3.40;;
7074;SDS011;3578;51.568;6.932;2023-05-20T06:51:27;11.13;;;3.60;;
7074;SDS011;3578;51.568;6.932;2023-05-20T06:53:54;5.43;;;2.93;;
7074;SDS011;3578;51.568;6.932;2023-05-20T06:56:21;9.37;;;3.37;;
7074;SDS011;3578;51.568;6.932;2023-05-20T06:58:48;28.57;;;4.63;;
7074;SDS011;3578;51.568;6.932;2023-05-20T07:01:15;12.67;;;3.57;;
7074;SDS011;3578;51.568;6.932;2023-05-20T07:03:42;9.50;;;3.23;;
7074;SDS011;3578;51.568;6.932;2023-05-20T07:06:09;17.23;;;3.23;;
7074;SDS011;3578;51.568;6.932;2023-05-20T07:08:37;43.53;;;5.07;;
7074;SDS011;3578;51.568;6.932;2023-05-20T07:11:05;11.57;;;3.60;;
7074;SDS011;3578;51.568;6.932;2023-05-20T07:13:32;5.60;;;3.27;;
7074;SDS011;3578;51.568;6.932;2023-05-20T07:15:59;92.13;;;9.93;;
7074;SDS011;3578;51.568;6.932;2023-05-20T07:18:26;42.70;;;5.20;;
7074;SDS011;3578;51.568;6.932;2023-05-20T07:20:53;86.00;;;9.70;;
7074;SDS011;3578;51.568;6.932;2023-05-20T07:23:21;16.90;;;3.73;;
7074;SDS011;3578;51.568;6.932;2023-05-20T07:25:50;38.83;;;5.83;;
7074;SDS011;3578;51.568;6.932;2023-05-20T07:28:19;37.53;;;6.73;;
7074;SDS011;3578;51.568;6.932;2023-05-20T07:30:46;10.70;;;4.20;;
7074;SDS011;3578;51.568;6.932;2023-05-20T07:33:14;4.73;;;3.67;;
7074;SDS011;3578;51.568;6.932;2023-05-20T07:35:42;14.27;;;4.57;;
7074;SDS011;3578;51.568;6.932;2023-05-20T07:38:10;5.77;;;3.20;;
7074;SDS011;3578;51.568;6.932;2023-05-20T07:40:37;71.20;;;9.70;;
7074;SDS011;3578;51.568;6.932;2023-05-20T07:43:07;7.90;;;4.63;;
7074;SDS011;3578;51.568;6.932;2023-05-20T07:45:34;13.53;;;4.73;;
7074;SDS011;3578;51.568;6.932;2023-05-20T07:48:01;12.20;;;4.37;;
7074;SDS011;3578;51.568;6.932;2023-05-20T07:50:29;8.67;;;4.80;;
7074;SDS011;3578;51.568;6.932;2023-05-20T07:52:56;14.60;;;5.93;;
7074;SDS011;3578;51.568;6.932;2023-05-20T07:55:23;19.33;;;5.90;;
7074;SDS011;3578;51.568;6.932;2023-05-20T07:57:50;8.77;;;4.30;;
7074;SDS011;3578;51.568;6.932;2023-05-20T08:00:18;18.30;;;5.20;;
7074;SDS011;3578;51.568;6.932;2023-05-20T08:02:46;6.07;;;4.77;;
7074;SDS011;3578;51.568;6.932;2023-05-20T08:05:13;10.77;;;4.47;;
7074;SDS011;3578;51.568;6.932;2023-05-20T08:07:39;10.70;;;4.90;;
7074;SDS011;3578;51.568;6.932;2023-05-20T08:10:07;8.20;;;4.83;;
7074;SDS011;3578;51.568;6.932;2023-05-20T08:12:35;7.20;;;5.00;;
7074;SDS011;3578;51.568;6.932;2023-05-20T08:15:02;10.23;;;4.87;;
7074;SDS011;3578;51.568;6.932;2023-05-20T08:17:31;7.80;;;4.70;;
7074;SDS011;3578;51.568;6.932;2023-05-20T08:19:59;7.07;;;5.30;;
7074;SDS011;3578;51.568;6.932;2023-05-20T08:22:26;6.77;;;4.90;;
7074;SDS011;3578;51.568;6.932;2023-05-20T08:24:53;7.13;;;5.67;;
7074;SDS011;3578;51.568;6.932;2023-05-20T08:27:20;12.50;;;4.80;;
7074;SDS011;3578;51.568;6.932;2023-05-20T08:29:47;5.10;;;4.70;;
7074;SDS011;3578;51.568;6.932;2023-05-20T08:32:14;9.40;;;5.13;;
7074;SDS011;3578;51.568;6.932;2023-05-20T08:34:42;22.00;;;6.67;;
7074;SDS011;3578;51.568;6.932;2023-05-20T08:37:09;14.37;;;5.57;;
7074;SDS011;3578;51.568;6.932;2023-05-20T08:39:36;5.93;;;5.43;;
7074;SDS011;3578;51.568;6.932;2023-05-20T08:42:03;6.83;;;4.87;;
7074;SDS011;3578;51.568;6.932;2023-05-20T08:44:32;5.37;;;4.87;;
7074;SDS011;3578;51.568;6.932;2023-05-20T08:47:00;5.53;;;5.03;;
7074;SDS011;3578;51.568;6.932;2023-05-20T08:49:29;7.00;;;5.00;;
7074;SDS011;3578;51.568;6.932;2023-05-20T08:51:59;5.60;;;5.00;;
7074;SDS011;3578;51.568;6.932;2023-05-20T08:54:29;8.93;;;5.47;;
7074;SDS011;3578;51.568;6.932;2023-05-20T08:57:10;6.97;;;5.87;;
7074;SDS011;3578;51.568;6.932;2023-05-20T08:59:38;12.20;;;6.70;;
7074;SDS011;3578;51.568;6.932;2023-05-20T09:02:08;5.70;;;5.20;;
7074;SDS011;3578;51.568;6.932;2023-05-20T09:04:35;5.70;;;5.10;;
7074;SDS011;3578;51.568;6.932;2023-05-20T09:07:04;8.47;;;5.70;;
7074;SDS011;3578;51.568;6.932;2023-05-20T09:09:32;8.77;;;5.70;;
7074;SDS011;3578;51.568;6.932;2023-05-20T09:12:00;7.33;;;5.30;;
7074;SDS011;3578;51.568;6.932;2023-05-20T09:14:28;8.73;;;5.80;;
7074;SDS011;3578;51.568;6.932;2023-05-20T09:16:55;7.97;;;5.13;;
7074;SDS011;3578;51.568;6.932;2023-05-20T09:19:22;5.83;;;5.30;;
7074;SDS011;3578;51.568;6.932;2023-05-20T09:21:51;8.53;;;5.33;;
7074;SDS011;3578;51.568;6.932;2023-05-20T09:24:21;8.77;;;5.43;;
7074;SDS011;3578;51.568;6.932;2023-05-20T09:26:49;23.10;;;5.37;;
7074;SDS011;3578;51.568;6.932;2023-05-20T09:29:16;12.10;;;4.63;;
7074;SDS011;3578;51.568;6.932;2023-05-20T09:31:45;7.07;;;5.20;;
7074;SDS011;3578;51.568;6.932;2023-05-20T09:34:13;6.73;;;5.47;;
7074;SDS011;3578;51.568;6.932;2023-05-20T09:36:41;18.60;;;6.43;;
7074;SDS011;3578;51.568;6.932;2023-05-20T09:39:11;7.60;;;5.10;;
7074;SDS011;3578;51.568;6.932;2023-05-20T09:41:45;5.53;;;5.03;;
7074;SDS011;3578;51.568;6.932;2023-05-20T09:44:27;9.77;;;5.50;;
7074;SDS011;3578;51.568;6.932;2023-05-20T09:46:55;7.73;;;4.87;;
7074;SDS011;3578;51.568;6.932;2023-05-20T09:49:23;24.87;;;5.90;;
7074;SDS011;3578;51.568;6.932;2023-05-20T09:51:51;29.83;;;6.93;;
7074;SDS011;3578;51.568;6.932;2023-05-20T09:54:18;9.20;;;5.70;;
7074;SDS011;3578;51.568;6.932;2023-05-20T09:56:47;17.80;;;5.63;;
7074;SDS011;3578;51.568;6.932;2023-05-20T09:59:15;6.03;;;5.30;;
7074;SDS011;3578;51.568;6.932;2023-05-20T10:01:43;10.13;;;6.40;;
7074;SDS011;3578;51.568;6.932;2023-05-20T10:04:10;5.83;;;5.30;;
7074;SDS011;3578;51.568;6.932;2023-05-20T10:06:44;66.03;;;8.53;;
7074;SDS011;3578;51.568;6.932;2023-05-20T10:09:31;44.83;;;9.03;;
7074;SDS011;3578;51.568;6.932;2023-05-20T10:12:19;10.57;;;5.60;;
7074;SDS011;3578;51.568;6.932;2023-05-20T10:14:56;4.73;;;4.30;;
7074;SDS011;3578;51.568;6.932;2023-05-20T10:17:38;7.67;;;4.67;;
7074;SDS011;3578;51.568;6.932;2023-05-20T10:20:11;7.50;;;5.10;;
7074;SDS011;3578;51.568;6.932;2023-05-20T10:22:38;40.93;;;8.73;;
7074;SDS011;3578;51.568;6.932;2023-05-20T10:25:11;20.77;;;5.80;;
7074;SDS011;3578;51.568;6.932;2023-05-20T10:28:02;5.57;;;4.63;;
7074;SDS011;3578;51.568;6.932;2023-05-20T10:30:31;18.47;;;5.80;;
7074;SDS011;3578;51.568;6.932;2023-05-20T10:33:02;6.33;;;4.40;;
7074;SDS011;3578;51.568;6.932;2023-05-20T10:35:30;6.13;;;5.00;;
7074;SDS011;3578;51.568;6.932;2023-05-20T10:38:06;7.17;;;4.13;;
7074;SDS011;3578;51.568;6.932;2023-05-20T10:40:35;8.77;;;5.07;;
7074;SDS011;3578;51.568;6.932;2023-05-20T10:43:11;19.87;;;5.77;;
7074;SDS011;3578;51.568;6.932;2023-05-20T10:45:46;21.63;;;5.50;;
7074;SDS011;3578;51.568;6.932;2023-05-20T10:48:24;36.50;;;6.90;;
7074;SDS011;3578;51.568;6.932;2023-05-20T10:50:53;18.23;;;4.70;;
7074;SDS011;3578;51.568;6.932;2023-05-20T10:53:22;34.80;;;6.63;;
7074;SDS011;3578;51.568;6.932;2023-05-20T10:55:51;17.07;;;5.23;;
7074;SDS011;3578;51.568;6.932;2023-05-20T10:58:21;11.20;;;4.73;;
7074;SDS011;3578;51.568;6.932;2023-05-20T11:00:52;4.87;;;3.50;;
7074;SDS011;3578;51.568;6.932;2023-05-20T11:03:20;8.67;;;3.90;;
7074;SDS011;3578;51.568;6.932;2023-05-20T11:05:48;15.00;;;5.03;;
7074;SDS011;3578;51.568;6.932;2023-05-20T11:08:16;5.60;;;3.80;;
7074;SDS011;3578;51.568;6.932;2023-05-20T11:10:43;5.87;;;4.60;;
7074;SDS011;3578;51.568;6.932;2023-05-20T11:13:11;8.63;;;3.87;;
7074;SDS011;3578;51.568;6.932;2023-05-20T11:15:40;9.97;;;5.27;;
7074;SDS011;3578;51.568;6.932;2023-05-20T11:18:09;13.77;;;4.20;;
7074;SDS011;3578;51.568;6.932;2023-05-20T11:20:39;5.07;;;3.80;;
7074;SDS011;3578;51.568;6.932;2023-05-20T11:23:10;9.43;;;4.60;;
7074;SDS011;3578;51.568;6.932;2023-05-20T11:25:38;4.80;;;4.20;;
7074;SDS011;3578;51.568;6.932;2023-05-20T11:28:08;14.17;;;4.43;;
7074;SDS011;3578;51.568;6.932;2023-05-20T11:30:38;4.60;;;4.07;;
7074;SDS011;3578;51.568;6.932;2023-05-20T11:33:10;8.07;;;4.17;;
7074;SDS011;3578;51.568;6.932;2023-05-20T11:35:43;6.00;;;3.77;;
7074;SDS011;3578;51.568;6.932;2023-05-20T11:38:11;4.50;;;4.10;;
7074;SDS011;3578;51.568;6.932;2023-05-20T11:40:41;4.17;;;3.77;;
7074;SDS011;3578;51.568;6.932;2023-05-20T11:43:10;7.53;;;4.40;;
7074;SDS011;3578;51.568;6.932;2023-05-20T11:45:39;14.10;;;4.83;;
7074;SDS011;3578;51.568;6.932;2023-05-20T11:48:08;10.13;;;4.40;;
7074;SDS011;3578;51.568;6.932;2023-05-20T11:50:37;10.50;;;4.03;;
7074;SDS011;3578;51.568;6.932;2023-05-20T11:53:06;4.03;;;3.63;;
7074;SDS011;3578;51.568;6.932;2023-05-20T11:55:43;4.23;;;3.40;;
7074;SDS011;3578;51.568;6.932;2023-05-20T11:58:14;6.20;;;4.30;;
7074;SDS011;3578;51.568;6.932;2023-05-20T12:00:41;5.60;;;4.30;;
7074;SDS011;3578;51.568;6.932;2023-05-20T12:03:10;3.90;;;3.70;;
7074;SDS011;3578;51.568;6.932;2023-05-20T12:05:37;7.10;;;3.93;;
7074;SDS011;3578;51.568;6.932;2023-05-20T12:08:04;9.07;;;3.30;;
7074;SDS011;3578;51.568;6.932;2023-05-20T12:10:32;3.73;;;3.43;;
7074;SDS011;3578;51.568;6.932;2023-05-20T12:12:59;7.37;;;4.10;;
7074;SDS011;3578;51.568;6.932;2023-05-20T12:15:27;3.73;;;3.53;;
7074;SDS011;3578;51.568;6.932;2023-05-20T12:17:54;3.17;;;2.97;;
7074;SDS011;3578;51.568;6.932;2023-05-20T12:20:23;4.03;;;3.63;;
7074;SDS011;3578;51.568;6.932;2023-05-20T12:22:50;3.53;;;3.10;;
7074;SDS011;3578;51.568;6.932;2023-05-20T12:25:18;62.50;;;7.07;;
7074;SDS011;3578;51.568;6.932;2023-05-20T12:27:46;13.93;;;3.90;;
7074;SDS011;3578;51.568;6.932;2023-05-20T12:30:15;4.80;;;2.83;;
7074;SDS011;3578;51.568;6.932;2023-05-20T12:32:44;7.60;;;3.40;;
7074;SDS011;3578;51.568;6.932;2023-05-20T12:35:12;3.50;;;2.87;;
7074;SDS011;3578;51.568;6.932;2023-05-20T12:37:40;6.27;;;2.90;;
7074;SDS011;3578;51.568;6.932;2023-05-20T12:40:09;13.83;;;3.93;;
7074;SDS011;3578;51.568;6.932;2023-05-20T12:42:38;4.60;;;3.30;;
7074;SDS011;3578;51.568;6.932;2023-05-20T12:45:07;4.13;;;3.00;;
7074;SDS011;3578;51.568;6.932;2023-05-20T12:47:34;17.83;;;3.83;;
7074;SDS011;3578;51.568;6.932;2023-05-20T12:50:02;9.90;;;3.37;;
7074;SDS011;3578;51.568;6.932;2023-05-20T12:52:29;3.77;;;3.03;;
7074;SDS011;3578;51.568;6.932;2023-05-20T12:54:58;2.67;;;2.57;;
7074;SDS011;3578;51.568;6.932;2023-05-20T12:57:25;3.80;;;3.03;;
7074;SDS011;3578;51.568;6.932;2023-05-20T12:59:52;7.10;;;3.00;;
7074;SDS011;3578;51.568;6.932;2023-05-20T13:02:19;6.43;;;3.20;;
7074;SDS011;3578;51.568;6.932;2023-05-20T13:04:46;6.83;;;3.00;;
7074;SDS011;3578;51.568;6.932;2023-05-20T13:07:13;27.13;;;4.27;;
7074;SDS011;3578;51.568;6.932;2023-05-20T13:09:40;12.70;;;3.07;;
7074;SDS011;3578;51.568;6.932;2023-05-20T13:12:08;12.40;;;3.50;;
7074;SDS011;3578;51.568;6.932;2023-05-20T13:14:35;6.43;;;2.90;;
7074;SDS011;3578;51.568;6.932;2023-05-20T13:17:02;45.80;;;5.63;;
7074;SDS011;3578;51.568;6.932;2023-05-20T13:19:30;16.47;;;3.67;;
7074;SDS011;3578;51.568;6.932;2023-05-20T13:21:57;11.93;;;4.07;;
7074;SDS011;3578;51.568;6.932;2023-05-20T13:24:24;30.93;;;4.80;;
7074;SDS011;3578;51.568;6.932;2023-05-20T13:26:51;19.80;;;4.87;;
7074;SDS011;3578;51.568;6.932;2023-05-20T13:29:20;18.70;;;3.13;;
7074;SDS011;3578;51.568;6.932;2023-05-20T13:31:47;24.37;;;4.90;;
7074;SDS011;3578;51.568;6.932;2023-05-20T13:34:15;17.43;;;3.10;;
7074;SDS011;3578;51.568;6.932;2023-05-20T13:36:42;11.33;;;2.63;;
7074;SDS011;3578;51.568;6.932;2023-05-20T13:39:09;64.97;;;8.20;;
7074;SDS011;3578;51.568;6.932;2023-05-20T13:41:36;2.83;;;2.63;;
7074;SDS011;3578;51.568;6.932;2023-05-20T13:44:03;3.53;;;2.20;;
7074;SDS011;3578;51.568;6.932;2023-05-20T13:46:32;2.57;;;2.20;;
7074;SDS011;3578;51.568;6.932;2023-05-20T13:48:59;8.40;;;3.00;;
7074;SDS011;3578;51.568;6.932;2023-05-20T13:51:26;6.10;;;2.63;;
7074;SDS011;3578;51.568;6.932;2023-05-20T13:53:53;2.93;;;2.43;;
7074;SDS011;3578;51.568;6.932;2023-05-20T13:56:20;5.43;;;2.47;;
7074;SDS011;3578;51.568;6.932;2023-05-20T13:58:47;11.10;;;2.80;;
7074;SDS011;3578;51.568;6.932;2023-05-20T14:01:14;6.30;;;2.43;;
7074;SDS011;3578;51.568;6.932;2023-05-20T14:03:42;19.93;;;4.00;;
7074;SDS011;3578;51.568;6.932;2023-05-20T14:06:10;3.93;;;2.23;;
7074;SDS011;3578;51.568;6.932;2023-05-20T14:08:39;7.47;;;2.80;;
7074;SDS011;3578;51.568;6.932;2023-05-20T14:11:05;2.87;;;2.67;;
7074;SDS011;3578;51.568;6.932;2023-05-20T14:13:32;2.43;;;2.17;;
7074;SDS011;3578;51.568;6.932;2023-05-20T14:16:00;3.73;;;2.40;;
7074;SDS011;3578;51.568;6.932;2023-05-20T14:18:26;2.37;;;2.10;;
7074;SDS011;3578;51.568;6.932;2023-05-20T14:20:55;2.30;;;2.10;;
7074;SDS011;3578;51.568;6.932;2023-05-20T14:23:22;2.43;;;2.30;;
7074;SDS011;3578;51.568;6.932;2023-05-20T14:25:49;4.03;;;2.60;;
7074;SDS011;3578;51.568;6.932;2023-05-20T14:28:15;10.23;;;2.30;;
7074;SDS011;3578;51.568;6.932;2023-05-20T14:30:42;5.83;;;2.33;;
7074;SDS011;3578;51.568;6.932;2023-05-20T14:33:09;2.20;;;2.00;;
7074;SDS011;3578;51.568;6.932;2023-05-20T14:35:36;2.40;;;2.20;;
7074;SDS011;3578;51.568;6.932;2023-05-20T14:38:04;4.50;;;2.40;;
7074;SDS011;3578;51.568;6.932;2023-05-20T14:40:31;3.63;;;2.30;;
7074;SDS011;3578;51.568;6.932;2023-05-20T14:42:58;2.13;;;2.03;;
7074;SDS011;3578;51.568;6.932;2023-05-20T14:45:25;5.77;;;2.83;;
7074;SDS011;3578;51.568;6.932;2023-05-20T14:47:52;2.93;;;2.47;;
7074;SDS011;3578;51.568;6.932;2023-05-20T14:50:19;2.37;;;2.27;;
7074;SDS011;3578;51.568;6.932;2023-05-20T14:52:46;2.10;;;1.90;;
7074;SDS011;3578;51.568;6.932;2023-05-20T14:55:15;3.73;;;2.50;;
7074;SDS011;3578;51.568;6.932;2023-05-20T14:57:42;5.60;;;2.00;;
7074;SDS011;3578;51.568;6.932;2023-05-20T15:00:10;3.87;;;2.47;;
7074;SDS011;3578;51.568;6.932;2023-05-20T15:02:38;2.57;;;2.37;;
7074;SDS011;3578;51.568;6.932;2023-05-20T15:05:05;2.43;;;2.23;;
7074;SDS011;3578;51.568;6.932;2023-05-20T15:07:35;5.10;;;2.87;;
7074;SDS011;3578;51.568;6.932;2023-05-20T15:10:03;6.30;;;2.30;;
7074;SDS011;3578;51.568;6.932;2023-05-20T15:12:33;4.30;;;2.50;;
7074;SDS011;3578;51.568;6.932;2023-05-20T15:15:00;6.63;;;2.60;;
7074;SDS011;3578;51.568;6.932;2023-05-20T15:17:27;4.80;;;3.00;;